createdAt,value
2022-08-05T00:00:19.558Z,75129.88
2022-08-05T00:02:51.022Z,75127.94
2022-08-05T00:06:03.280Z,75126.03
2022-08-05T00:08:05.575Z,75120.25
2022-08-05T00:10:52.202Z,75114.47
2022-08-05T00:13:19.865Z,75110.63
2022-08-05T00:15:55.094Z,75122.16
2022-08-05T00:18:23.437Z,75139.50
2022-08-05T00:20:51.701Z,75145.28
2022-08-05T00:23:30.879Z,75143.34
2022-08-05T00:26:06.807Z,75141.44
2022-08-05T00:28:34.491Z,75135.66
2022-08-05T00:31:04.386Z,75133.72
2022-08-05T00:34:56.994Z,75145.28
2022-08-05T00:37:11.093Z,75145.28
2022-08-05T00:39:13.405Z,75141.44
2022-08-05T00:41:55.199Z,75151.06
2022-08-05T00:44:30.650Z,75153.00
2022-08-05T00:47:03.851Z,75153.00
2022-08-05T00:49:44.711Z,75154.91
2022-08-05T00:52:28.603Z,75151.06
2022-08-05T00:54:56.177Z,75149.13
2022-08-05T00:57:25.119Z,75149.13
2022-08-05T00:59:52.387Z,75149.13
2022-08-05T01:02:19.312Z,75156.84
2022-08-05T01:04:50.339Z,75149.13
2022-08-05T01:07:31.506Z,75147.22
2022-08-05T01:09:59.345Z,75141.44
2022-08-05T01:12:29.710Z,75145.28
2022-08-05T01:15:05.148Z,75145.28
2022-08-05T01:17:39.896Z,75141.44
2022-08-05T01:20:20.558Z,75135.66
2022-08-05T01:23:14.463Z,75137.56
2022-08-05T01:26:27.305Z,75141.44
2022-08-05T01:29:31.718Z,75149.13
2022-08-05T01:32:05.147Z,75153.00
2022-08-05T01:34:54.941Z,75158.78
2022-08-05T01:37:30.105Z,75160.69
2022-08-05T01:40:01.616Z,75164.53
2022-08-05T01:42:31.407Z,75170.31
2022-08-05T01:45:02.259Z,75172.25
2022-08-05T01:47:39.683Z,75168.41
2022-08-05T01:50:15.162Z,75183.81
2022-08-05T01:52:49.909Z,75185.72
2022-08-05T01:55:20.792Z,75187.66
2022-08-05T01:58:09.565Z,75191.50
2022-08-05T02:00:39.851Z,75199.22
2022-08-05T02:03:29.146Z,75201.16
2022-08-05T02:06:03.446Z,75206.91
2022-08-05T02:08:55.024Z,75206.91
2022-08-05T02:11:33.575Z,75210.78
2022-08-05T02:14:08.028Z,75218.47
2022-08-05T02:16:52.889Z,75233.88
2022-08-05T02:19:35.914Z,75241.59
2022-08-05T02:22:26.986Z,75245.44
2022-08-05T02:25:02.568Z,75245.44
2022-08-05T02:27:57.957Z,75245.44
2022-08-05T02:30:21.294Z,75249.31
2022-08-05T02:32:52.570Z,75237.75
2022-08-05T02:35:28.107Z,75249.31
2022-08-05T02:38:02.178Z,75260.84
2022-08-05T02:40:30.619Z,75272.41
2022-08-05T02:42:59.122Z,75272.41
2022-08-05T02:45:28.439Z,75276.28
2022-08-05T02:48:09.731Z,75274.34
2022-08-05T02:50:44.900Z,75280.13
2022-08-05T02:53:18.727Z,75280.13
2022-08-05T02:55:54.834Z,75283.97
2022-08-05T02:58:28.882Z,75280.13
2022-08-05T03:01:00.953Z,75280.13
2022-08-05T03:03:33.942Z,75283.97
2022-08-05T03:06:56.475Z,75280.13
2022-08-05T03:09:05.105Z,75283.97
2022-08-05T03:11:54.713Z,75276.28
2022-08-05T03:14:21.691Z,75282.03
2022-08-05T03:16:48.436Z,75282.03
2022-08-05T03:19:33.088Z,75268.56
2022-08-05T03:22:00.992Z,75260.84
2022-08-05T03:24:30.767Z,75253.16
2022-08-05T03:27:01.065Z,75249.31
2022-08-05T03:29:45.666Z,75249.31
2022-08-05T03:32:16.472Z,75249.31
2022-08-05T03:34:51.331Z,75239.66
2022-08-05T03:37:19.759Z,75233.88
2022-08-05T03:39:59.015Z,75230.03
2022-08-05T03:42:27.112Z,75220.41
2022-08-05T03:44:55.833Z,75216.56
2022-08-05T03:47:24.388Z,75205.00
2022-08-05T03:49:52.411Z,75199.22
2022-08-05T03:52:37.483Z,75187.66
2022-08-05T03:56:01.099Z,75170.31
2022-08-05T03:58:20.975Z,75060.53
2022-08-05T04:00:58.129Z,74844.81
2022-08-05T04:03:29.304Z,74648.34
2022-08-05T04:05:59.143Z,74517.38
2022-08-05T04:08:34.997Z,74336.38
2022-08-05T04:11:08.633Z,74216.97
2022-08-05T04:13:50.840Z,74139.94
2022-08-05T04:16:24.056Z,73997.44
2022-08-05T04:18:54.132Z,73978.19
2022-08-05T04:22:08.467Z,73802.97
2022-08-05T04:24:08.934Z,73689.38
2022-08-05T04:26:36.313Z,73573.84
2022-08-05T04:29:07.047Z,73606.56
2022-08-05T04:31:38.445Z,73423.69
2022-08-05T04:34:18.717Z,73441.00
2022-08-05T04:36:53.184Z,73288.91
2022-08-05T04:39:20.305Z,73261.97
2022-08-05T04:41:48.443Z,73390.94
2022-08-05T04:44:16.261Z,73506.47
2022-08-05T04:46:51.274Z,73423.69
2022-08-05T04:49:24.576Z,73335.13
2022-08-05T04:52:05.536Z,73211.91
2022-08-05T04:54:34.616Z,72996.28
2022-08-05T04:57:01.627Z,72961.66
2022-08-05T04:59:36.722Z,72765.31
2022-08-05T05:02:37.655Z,72746.06
2022-08-05T05:04:53.412Z,72651.72
2022-08-05T05:07:32.799Z,72690.22
2022-08-05T05:10:05.463Z,72642.09
2022-08-05T05:12:33.497Z,72672.91
2022-08-05T05:15:03.722Z,72470.81
2022-08-05T05:17:55.592Z,72597.84
2022-08-05T05:20:28.426Z,72459.25
2022-08-05T05:22:56.269Z,72455.41
2022-08-05T05:25:32.978Z,72507.38
2022-08-05T05:28:08.308Z,72594.00
2022-08-05T05:30:36.875Z,72511.22
2022-08-05T05:33:16.040Z,72372.66
2022-08-05T05:35:48.415Z,72418.84
2022-08-05T05:38:22.781Z,72287.97
2022-08-05T05:40:53.775Z,72195.59
2022-08-05T05:43:57.293Z,72189.81
2022-08-05T05:46:17.832Z,72312.97
2022-08-05T05:48:48.110Z,72182.09
2022-08-05T05:51:27.900Z,72099.34
2022-08-05T05:53:58.882Z,72099.34
2022-08-05T05:56:34.451Z,72103.19
2022-08-05T05:59:06.670Z,72110.91
2022-08-05T06:01:37.728Z,72064.72
2022-08-05T06:04:13.068Z,72049.31
2022-08-05T06:06:43.103Z,72149.41
2022-08-05T06:09:17.554Z,72110.91
2022-08-05T06:11:59.419Z,72249.47
2022-08-05T06:14:28.090Z,72311.06
2022-08-05T06:16:57.038Z,72199.44
2022-08-05T06:19:33.861Z,72184.03
2022-08-05T06:22:07.019Z,72184.03
2022-08-05T06:24:38.566Z,72210.97
2022-08-05T06:27:05.453Z,72287.97
2022-08-05T06:29:49.650Z,72280.25
2022-08-05T06:32:29.477Z,72095.50
2022-08-05T06:34:58.764Z,72087.81
2022-08-05T06:37:57.686Z,72134.00
2022-08-05T06:40:18.370Z,72145.53
2022-08-05T06:42:48.704Z,72153.25
2022-08-05T06:45:21.285Z,72132.06
2022-08-05T06:48:47.408Z,72118.59
2022-08-05T06:50:54.013Z,72110.91
2022-08-05T06:53:27.707Z,72126.28
2022-08-05T06:55:55.042Z,72330.31
2022-08-05T06:58:34.733Z,72276.41
2022-08-05T07:01:06.394Z,72445.78
2022-08-05T07:03:34.567Z,72307.22
2022-08-05T07:06:06.021Z,72303.34
2022-08-05T07:08:42.142Z,72545.88
2022-08-05T07:11:15.383Z,72389.97
2022-08-05T07:14:02.054Z,72295.66
2022-08-05T07:17:57.276Z,72403.44
2022-08-05T07:22:29.048Z,72599.75
2022-08-05T07:25:21.850Z,72615.16
2022-08-05T07:27:58.271Z,72576.66
2022-08-05T07:30:39.085Z,72615.16
2022-08-05T07:33:10.613Z,72603.63
2022-08-05T07:36:03.567Z,72511.22
2022-08-05T07:38:42.673Z,72545.88
2022-08-05T07:42:07.098Z,72563.19
2022-08-05T07:44:02.859Z,72567.03
2022-08-05T07:46:32.109Z,72453.47
2022-08-05T07:49:05.982Z,72461.19
2022-08-05T07:51:40.740Z,72449.63
2022-08-05T07:54:16.112Z,72545.88
2022-08-05T07:57:02.933Z,72561.25
2022-08-05T07:59:40.198Z,72653.66
2022-08-05T08:02:15.647Z,72676.75
2022-08-05T08:04:48.460Z,72644.03
2022-08-05T08:07:18.394Z,72613.25
2022-08-05T08:09:52.119Z,72676.75
2022-08-05T08:12:35.486Z,72730.66
2022-08-05T08:15:14.083Z,72786.47
2022-08-05T08:17:52.732Z,72782.63
2022-08-05T08:21:00.345Z,72886.56
2022-08-05T08:23:59.714Z,72961.66
2022-08-05T08:26:02.847Z,72934.69
2022-08-05T08:28:36.886Z,72957.78
2022-08-05T08:31:09.641Z,72977.03
2022-08-05T08:33:41.986Z,73000.16
2022-08-05T08:36:38.853Z,73002.06
2022-08-05T08:38:57.493Z,73034.78
2022-08-05T08:41:52.144Z,73061.75
2022-08-05T08:45:18.094Z,73005.91
2022-08-05T08:47:47.216Z,72973.19
2022-08-05T08:50:22.760Z,72996.28
2022-08-05T08:52:59.496Z,73015.53
2022-08-05T08:56:03.077Z,73090.63
2022-08-05T08:58:17.014Z,73055.97
2022-08-05T09:00:44.483Z,72996.28
2022-08-05T09:03:11.938Z,73007.84
2022-08-05T09:06:07.746Z,72994.38
2022-08-05T09:08:30.421Z,72992.44
2022-08-05T09:10:57.935Z,73004.00
2022-08-05T09:13:25.443Z,73007.84
2022-08-05T09:16:02.510Z,72990.53
2022-08-05T09:18:29.854Z,72977.03
2022-08-05T09:20:56.726Z,72996.28
2022-08-05T09:23:27.227Z,73013.63
2022-08-05T09:26:20.802Z,73011.69
2022-08-05T09:28:59.211Z,72988.59
2022-08-05T09:32:41.064Z,72957.78
2022-08-05T09:34:13.914Z,72955.88
2022-08-05T09:36:54.655Z,72948.16
2022-08-05T09:39:39.275Z,72959.72
2022-08-05T09:42:23.517Z,73004.00
2022-08-05T09:44:56.728Z,72965.50
2022-08-05T09:47:48.433Z,72963.56
2022-08-05T09:50:18.253Z,72946.25
2022-08-05T09:53:02.222Z,72977.03
2022-08-05T09:55:56.964Z,72955.88
2022-08-05T09:58:22.889Z,72936.63
2022-08-05T10:00:58.580Z,72903.91
2022-08-05T10:03:51.830Z,72892.34
2022-08-05T10:06:14.645Z,72938.53
2022-08-05T10:08:42.915Z,72934.69
2022-08-05T10:11:17.087Z,72961.66
2022-08-05T10:13:48.328Z,72930.84
2022-08-05T10:16:37.614Z,73011.69
2022-08-05T10:19:10.057Z,73034.78
2022-08-05T10:21:40.297Z,72977.03
2022-08-05T10:24:13.665Z,72988.59
2022-08-05T10:26:51.823Z,73000.16
2022-08-05T10:29:23.527Z,72923.16
2022-08-05T10:32:52.972Z,72869.25
2022-08-05T10:35:01.131Z,72857.69
2022-08-05T10:37:40.372Z,72876.94
2022-08-05T10:40:31.846Z,72861.53
2022-08-05T10:43:07.758Z,72934.69
2022-08-05T10:45:41.654Z,72861.53
2022-08-05T10:48:38.371Z,72861.53
2022-08-05T10:51:22.115Z,72807.66
2022-08-05T10:54:02.023Z,72792.25
2022-08-05T10:56:52.802Z,72838.44
2022-08-05T11:00:02.940Z,72813.41
2022-08-05T11:02:38.125Z,72823.03
2022-08-05T11:05:09.336Z,72784.56
2022-08-05T11:08:01.709Z,72773.00
2022-08-05T11:10:50.461Z,72721.03
2022-08-05T11:13:54.912Z,72703.69
2022-08-05T11:16:47.758Z,72701.78
2022-08-05T11:20:16.982Z,72688.31
2022-08-05T11:23:08.848Z,72674.84
2022-08-05T11:26:06.278Z,72680.59
2022-08-05T11:28:25.559Z,72746.06
2022-08-05T11:31:06.477Z,72699.84
2022-08-05T11:33:46.016Z,72707.56
2022-08-05T11:36:34.179Z,72686.38
2022-08-05T11:39:07.334Z,72692.16
2022-08-05T11:42:00.669Z,72707.56
2022-08-05T11:44:52.791Z,72672.91
2022-08-05T11:47:49.460Z,72649.81
2022-08-05T11:50:10.658Z,72642.09
2022-08-05T11:52:46.263Z,72688.31
2022-08-05T11:55:15.802Z,72670.97
2022-08-05T11:58:09.743Z,72705.63
2022-08-05T12:00:38.028Z,72696.00
2022-08-05T12:03:29.556Z,72801.88
2022-08-05T12:06:09.891Z,72792.25
2022-08-05T12:08:51.196Z,72742.19
2022-08-05T12:11:22.743Z,72696.00
2022-08-05T12:14:04.521Z,72672.91
2022-08-05T12:16:38.427Z,72649.81
2022-08-05T12:19:08.237Z,72640.19
2022-08-05T12:21:43.038Z,72626.72
2022-08-05T12:24:17.846Z,72628.63
2022-08-05T12:26:46.278Z,72634.41
2022-08-05T12:29:15.992Z,72611.31
2022-08-05T12:31:58.146Z,72599.75
2022-08-05T12:34:32.349Z,72661.34
2022-08-05T12:37:10.562Z,72661.34
2022-08-05T12:39:41.199Z,72657.50
2022-08-05T12:42:14.744Z,72672.91
2022-08-05T12:44:44.563Z,72690.22
2022-08-05T12:47:12.955Z,72670.97
2022-08-05T12:50:04.037Z,72645.97
2022-08-05T12:52:38.782Z,72622.88
2022-08-05T12:55:25.669Z,72649.81
2022-08-05T12:58:49.788Z,72617.09
2022-08-05T13:02:04.063Z,72601.69
2022-08-05T13:03:32.407Z,72622.88
2022-08-05T13:06:01.741Z,72588.22
2022-08-05T13:08:30.287Z,72565.13
2022-08-05T13:11:02.066Z,72584.38
2022-08-05T13:14:05.433Z,72607.47
2022-08-05T13:16:17.574Z,72611.31
2022-08-05T13:18:55.150Z,72603.63
2022-08-05T13:21:27.810Z,72630.56
2022-08-05T13:23:55.711Z,72584.38
2022-08-05T13:26:29.894Z,72659.44
2022-08-05T13:28:57.576Z,72626.72
2022-08-05T13:32:04.225Z,72622.88
2022-08-05T13:34:25.889Z,72651.72
2022-08-05T13:36:54.043Z,72655.59
2022-08-05T13:40:13.513Z,72669.06
2022-08-05T13:42:14.328Z,72649.81
2022-08-05T13:44:45.788Z,72649.81
2022-08-05T13:47:34.774Z,72634.41
2022-08-05T13:50:04.407Z,72620.94
2022-08-05T13:52:37.937Z,72642.09
2022-08-05T13:55:08.003Z,72636.34
2022-08-05T13:57:50.775Z,72630.56
2022-08-05T14:00:27.253Z,72661.34
2022-08-05T14:03:01.136Z,72644.03
2022-08-05T14:05:48.508Z,72630.56
2022-08-05T14:08:20.292Z,72611.31
2022-08-05T14:10:48.900Z,72622.88
2022-08-05T14:13:16.289Z,72613.25
2022-08-05T14:16:04.312Z,72611.31
2022-08-05T14:18:32.160Z,72622.88
2022-08-05T14:20:59.033Z,72619.00
2022-08-05T14:23:29.666Z,72709.47
2022-08-05T14:26:04.900Z,72684.47
2022-08-05T14:28:33.195Z,72676.75
2022-08-05T14:31:01.474Z,72688.31
2022-08-05T14:33:56.230Z,72665.22
2022-08-05T14:36:16.066Z,72638.25
2022-08-05T14:38:48.623Z,72622.88
2022-08-05T14:41:17.698Z,72638.25
2022-08-05T14:43:57.567Z,72676.75
2022-08-05T14:46:30.706Z,72719.09
2022-08-05T14:49:06.905Z,72746.06
2022-08-05T14:51:36.395Z,72719.09
2022-08-05T14:54:26.619Z,72686.38
2022-08-05T14:56:54.669Z,72744.13
2022-08-05T14:59:22.184Z,72769.16
2022-08-05T15:01:53.860Z,72742.19
2022-08-05T15:04:22.600Z,72726.81
2022-08-05T15:06:52.834Z,72707.56
2022-08-05T15:09:50.587Z,72699.84
2022-08-05T15:12:16.350Z,72703.69
2022-08-05T15:14:50.486Z,72730.66
2022-08-05T15:17:46.161Z,72721.03
2022-08-05T15:20:15.616Z,72767.22
2022-08-05T15:22:46.810Z,72742.19
2022-08-05T15:25:23.602Z,72730.66
2022-08-05T15:28:07.720Z,72726.81
2022-08-05T15:30:36.877Z,72715.25
2022-08-05T15:33:05.506Z,72717.19
2022-08-05T15:35:36.265Z,72746.06
2022-08-05T15:38:34.179Z,72738.34
2022-08-05T15:41:20.832Z,72767.22
2022-08-05T15:43:47.017Z,72774.94
2022-08-05T15:46:14.410Z,72792.25
2022-08-05T15:48:52.821Z,72819.19
2022-08-05T15:52:09.739Z,72815.34
2022-08-05T15:54:15.796Z,72811.50
2022-08-05T15:56:43.488Z,72807.66
2022-08-05T15:59:22.087Z,72817.28
2022-08-05T16:01:52.392Z,72823.03
2022-08-05T16:04:20.812Z,72836.53
2022-08-05T16:06:53.991Z,72842.28
2022-08-05T16:09:22.674Z,72865.41
2022-08-05T16:11:54.221Z,72876.94
2022-08-05T16:14:26.308Z,72898.13
2022-08-05T16:16:55.531Z,72905.81
2022-08-05T16:20:03.172Z,72923.16
2022-08-05T16:22:13.329Z,72932.78
2022-08-05T16:24:51.629Z,72942.41
2022-08-05T16:27:19.427Z,72950.09
2022-08-05T16:29:59.316Z,72957.78
2022-08-05T16:32:29.239Z,72963.56
2022-08-05T16:34:57.683Z,72967.41
2022-08-05T16:38:02.468Z,72977.03
2022-08-05T16:40:25.114Z,72975.13
2022-08-05T16:42:57.219Z,72977.03
2022-08-05T16:46:04.033Z,72984.75
2022-08-05T16:48:10.903Z,73004.00
2022-08-05T16:50:53.194Z,73007.84
2022-08-05T16:53:23.200Z,73025.16
2022-08-05T16:55:58.913Z,73034.78
2022-08-05T16:58:26.644Z,73038.66
2022-08-05T17:00:53.573Z,73042.50
2022-08-05T17:03:21.727Z,73050.19
2022-08-05T17:05:54.257Z,73061.75
2022-08-05T17:08:35.757Z,73065.59
2022-08-05T17:11:16.848Z,73069.44
2022-08-05T17:13:46.975Z,73069.44
2022-08-05T17:16:30.223Z,73081.00
2022-08-05T17:19:01.123Z,73096.41
2022-08-05T17:21:36.165Z,73109.88
2022-08-05T17:24:30.262Z,73127.19
2022-08-05T17:26:57.985Z,73146.44
2022-08-05T17:29:33.163Z,73171.47
2022-08-05T17:32:14.777Z,73192.66
2022-08-05T17:34:49.226Z,73204.19
2022-08-05T17:37:40.463Z,73211.91
2022-08-05T17:40:11.004Z,73227.31
2022-08-05T17:42:42.883Z,73244.63
2022-08-05T17:45:20.475Z,73258.09
2022-08-05T17:47:53.917Z,73269.66
2022-08-05T17:50:28.149Z,73277.34
2022-08-05T17:53:01.399Z,73300.47
2022-08-05T17:55:38.255Z,73315.84
2022-08-05T17:58:14.462Z,73337.03
2022-08-05T18:00:47.866Z,73348.59
2022-08-05T18:03:48.423Z,73367.84
2022-08-05T18:06:11.959Z,73375.53
2022-08-05T18:08:45.930Z,73394.78
2022-08-05T18:11:24.293Z,73412.13
2022-08-05T18:14:07.145Z,73415.97
2022-08-05T18:16:35.514Z,73427.53
2022-08-05T18:19:18.657Z,73435.22
2022-08-05T18:22:07.569Z,73448.69
2022-08-05T18:24:36.766Z,73454.47
2022-08-05T18:27:05.900Z,73467.97
2022-08-05T18:29:41.475Z,73481.44
2022-08-05T18:32:22.481Z,73485.28
2022-08-05T18:34:55.380Z,73496.84
2022-08-05T18:37:34.184Z,73504.53
2022-08-05T18:40:34.302Z,73521.88
2022-08-05T18:42:48.921Z,73531.50
2022-08-05T18:45:18.245Z,73548.81
2022-08-05T18:47:51.470Z,73558.44
2022-08-05T18:50:46.290Z,73570.00
2022-08-05T18:53:24.519Z,73581.56
2022-08-05T18:55:51.937Z,73595.03
2022-08-05T18:58:28.574Z,73602.72
2022-08-05T19:00:58.947Z,73616.19
2022-08-05T19:03:55.327Z,73621.97
2022-08-05T19:06:21.730Z,73635.47
2022-08-05T19:08:52.064Z,73635.47
2022-08-05T19:11:28.405Z,73647.00
2022-08-05T19:14:15.213Z,73647.00
2022-08-05T19:16:51.464Z,73654.72
2022-08-05T19:19:21.108Z,73660.50
2022-08-05T19:21:48.500Z,73673.97
2022-08-05T19:24:18.292Z,73681.66
2022-08-05T19:27:03.926Z,73693.22
2022-08-05T19:29:36.517Z,73706.69
2022-08-05T19:32:11.212Z,73718.25
2022-08-05T19:34:39.083Z,73727.88
2022-08-05T19:37:06.328Z,73731.72
2022-08-05T19:39:45.149Z,73743.28
2022-08-05T19:42:35.456Z,73758.69
2022-08-05T19:45:05.674Z,73774.09
2022-08-05T19:47:33.972Z,73781.78
2022-08-05T19:50:01.101Z,73797.19
2022-08-05T19:52:31.702Z,73806.81
2022-08-05T19:55:06.743Z,73812.59
2022-08-05T19:57:49.338Z,73824.16
2022-08-05T20:00:21.271Z,73839.56
2022-08-05T20:02:47.998Z,73856.88
2022-08-05T20:05:24.141Z,73866.50
2022-08-05T20:07:55.117Z,73881.91
2022-08-05T20:10:26.061Z,73885.75
2022-08-05T20:12:52.809Z,73883.84
2022-08-05T20:15:48.077Z,73889.63
2022-08-05T20:18:10.061Z,73895.41
2022-08-05T20:20:56.758Z,73912.72
2022-08-05T20:23:39.960Z,73920.44
2022-08-05T20:26:16.402Z,73931.97
2022-08-05T20:28:50.705Z,73947.38
2022-08-05T20:31:21.893Z,73962.78
2022-08-05T20:33:50.439Z,73978.19
2022-08-05T20:36:18.408Z,73999.38
2022-08-05T20:38:54.369Z,74010.94
2022-08-05T20:41:27.095Z,74022.47
2022-08-05T20:44:17.669Z,74030.19
2022-08-05T20:46:48.045Z,74049.44
2022-08-05T20:49:15.327Z,74057.13
2022-08-05T20:51:53.710Z,74066.78
2022-08-05T20:54:20.738Z,74078.31
2022-08-05T20:56:48.979Z,74086.03
2022-08-05T20:59:18.853Z,74097.59
2022-08-05T21:01:57.298Z,74116.84
2022-08-05T21:04:26.844Z,74122.63
2022-08-05T21:06:54.871Z,74136.09
2022-08-05T21:09:22.904Z,74134.16
2022-08-05T21:12:07.246Z,74134.16
2022-08-05T21:14:37.753Z,74138.00
2022-08-05T21:17:05.187Z,74139.94
2022-08-05T21:19:46.711Z,74136.09
2022-08-05T21:22:17.737Z,74145.72
2022-08-05T21:24:48.931Z,74151.50
2022-08-05T21:27:20.517Z,74159.19
2022-08-05T21:29:56.307Z,74155.34
2022-08-05T21:32:28.016Z,74163.06
2022-08-05T21:35:08.176Z,74155.34
2022-08-05T21:37:47.173Z,74157.28
2022-08-05T21:40:14.751Z,74155.34
2022-08-05T21:42:44.704Z,74151.50
2022-08-05T21:45:12.348Z,74155.34
2022-08-05T21:47:56.478Z,74159.19
2022-08-05T21:50:26.299Z,74155.34
2022-08-05T21:52:54.006Z,74155.34
2022-08-05T21:55:42.917Z,74151.50
2022-08-05T21:58:12.985Z,74161.13
2022-08-05T22:00:40.095Z,74170.75
2022-08-05T22:03:07.284Z,74166.91
2022-08-05T22:05:49.134Z,74157.28
2022-08-05T22:08:22.535Z,74151.50
2022-08-05T22:10:51.964Z,74141.88
2022-08-05T22:14:06.260Z,74124.53
2022-08-05T22:16:32.155Z,74122.63
2022-08-05T22:18:54.340Z,74126.47
2022-08-05T22:21:25.603Z,74114.91
2022-08-05T22:24:13.179Z,74095.66
2022-08-05T22:27:17.737Z,74078.31
2022-08-05T22:29:44.417Z,74086.03
2022-08-05T22:32:12.805Z,74101.44
2022-08-05T22:34:44.318Z,74093.72
2022-08-05T22:37:12.778Z,74093.72
2022-08-05T22:39:39.872Z,74093.72
2022-08-05T22:42:12.175Z,74086.03
2022-08-05T22:44:42.528Z,74089.88
2022-08-05T22:47:14.311Z,74087.94
2022-08-05T22:50:19.892Z,74091.81
2022-08-05T22:52:44.140Z,74097.59
2022-08-05T22:55:19.274Z,74093.72
2022-08-05T22:57:50.366Z,74101.44
2022-08-05T23:00:20.515Z,74105.28
2022-08-05T23:02:48.936Z,74099.50
2022-08-05T23:05:18.849Z,74105.28
2022-08-05T23:07:50.230Z,74099.50
2022-08-05T23:10:20.274Z,74107.22
2022-08-05T23:12:55.046Z,74109.13
2022-08-05T23:15:27.118Z,74107.22
2022-08-05T23:18:00.531Z,74103.34
2022-08-05T23:20:28.866Z,74109.13
2022-08-05T23:22:56.559Z,74109.13
2022-08-05T23:25:51.047Z,74101.44
2022-08-05T23:28:15.990Z,74105.28
2022-08-05T23:30:53.568Z,74109.13
2022-08-05T23:33:26.578Z,74116.84
2022-08-05T23:36:10.545Z,74124.53
2022-08-05T23:38:37.991Z,74124.53
2022-08-05T23:41:04.872Z,74132.25
2022-08-05T23:44:02.768Z,74136.09
2022-08-05T23:46:21.974Z,74143.78
2022-08-05T23:49:00.895Z,74151.50
2022-08-05T23:51:55.462Z,74155.34
2022-08-05T23:54:30.127Z,74161.13
2022-08-05T23:57:03.950Z,74168.81
2022-08-05T23:59:37.683Z,74178.47
